Time;durP1;ratioP1;P1;durP2;ratioP2;P2;SDS_P1;SDS_P2;PMS_P1;PMS_P2;Temp;Humidity;BMP_temperature;BMP_pressure;BME280_temperature;BME280_humidity;BME280_pressure;Samples;Min_cycle;Max_cycle;Signal;HPM_P1;HPM_P2
2023/05/05 00:00:55;;;;;;;8.95;3.55;;;10.20;72.80;;;;;;5111310;28;20031;-53
2023/05/05 00:03:22;;;;;;;6.35;2.85;;;10.20;72.00;;;;;;5090301;28;20024;-54
2023/05/05 00:05:48;;;;;;;6.13;3.17;;;10.10;72.70;;;;;;5095887;28;20114;-55
2023/05/05 00:08:14;;;;;;;7.72;3.38;;;10.10;73.00;;;;;;5091711;28;20107;-55
2023/05/05 00:10:41;;;;;;;6.30;2.90;;;10.10;72.70;;;;;;5091811;28;20099;-58
2023/05/05 00:13:07;;;;;;;7.40;3.22;;;10.10;72.60;;;;;;5111062;28;20024;-54
2023/05/05 00:15:32;;;;;;;10.45;2.75;;;10.10;72.20;;;;;;5089746;28;20028;-53
2023/05/05 00:17:58;;;;;;;10.93;3.25;;;10.00;72.80;;;;;;5110875;28;20031;-55
2023/05/05 00:20:23;;;;;;;8.63;3.15;;;10.00;73.70;;;;;;5089288;28;20071;-54
2023/05/05 00:22:49;;;;;;;10.45;2.90;;;10.00;72.30;;;;;;5110815;28;20027;-53
2023/05/05 00:25:15;;;;;;;5.57;2.45;;;10.00;73.90;;;;;;5095037;28;20063;-55
2023/05/05 00:27:40;;;;;;;5.45;2.72;;;10.00;74.20;;;;;;5111152;28;20031;-54
2023/05/05 00:30:06;;;;;;;9.95;3.17;;;9.90;73.50;;;;;;5089588;28;20109;-55
2023/05/05 00:32:31;;;;;;;6.05;2.67;;;9.90;73.10;;;;;;5110315;28;20031;-53
2023/05/05 00:34:57;;;;;;;7.03;2.80;;;10.00;74.20;;;;;;5089332;28;20028;-57
2023/05/05 00:37:22;;;;;;;8.52;3.55;;;9.90;74.20;;;;;;5110302;28;20062;-56
2023/05/05 00:39:48;;;;;;;6.45;2.80;;;9.90;74.30;;;;;;5099082;28;20055;-54
2023/05/05 00:42:13;;;;;;;12.98;2.97;;;9.90;73.10;;;;;;5096478;28;20042;-55
2023/05/05 00:44:41;;;;;;;7.72;3.90;;;9.90;73.90;;;;;;5111111;28;20019;-56
2023/05/05 00:47:11;;;;;;;8.60;3.97;;;9.90;73.90;;;;;;5095380;28;20038;-54
2023/05/05 00:49:37;;;;;;;8.20;2.90;;;9.90;73.00;;;;;;5110924;28;20024;-53
2023/05/05 00:52:04;;;;;;;7.28;2.70;;;9.90;73.10;;;;;;5094822;28;20046;-55
2023/05/05 00:54:29;;;;;;;5.55;3.03;;;9.90;73.10;;;;;;5110900;28;20024;-53
2023/05/05 00:56:55;;;;;;;4.45;2.63;;;9.90;73.50;;;;;;5093648;28;20392;-54
2023/05/05 00:59:21;;;;;;;8.38;3.25;;;9.90;74.70;;;;;;5110945;28;20483;-55
2023/05/05 01:01:47;;;;;;;6.95;3.30;;;9.90;74.40;;;;;;5092634;28;20031;-55
2023/05/05 01:04:12;;;;;;;9.82;3.33;;;9.90;74.60;;;;;;5110759;28;20080;-55
2023/05/05 01:07:30;;;;;;;6.72;3.33;;;9.90;74.60;;;;;;5088402;28;20028;-53
2023/05/05 01:10:08;;;;;;;9.50;2.97;;;9.90;73.70;;;;;;5049075;28;20093;-55
2023/05/05 01:12:58;;;;;;;12.43;3.28;;;9.90;74.30;;;;;;5108678;28;20391;-54
2023/05/05 01:15:33;;;;;;;8.88;3.40;;;9.90;74.30;;;;;;5069850;28;20028;-55
2023/05/05 01:18:44;;;;;;;8.27;2.80;;;9.90;74.30;;;;;;5094620;28;20045;-52
2023/05/05 01:21:22;;;;;;;8.85;3.35;;;9.90;74.20;;;;;;5066605;28;20167;-53
2023/05/05 01:24:06;;;;;;;7.05;2.95;;;9.80;74.60;;;;;;5069727;28;20717;-55
2023/05/05 01:27:03;;;;;;;7.32;3.25;;;9.80;74.40;;;;;;5105145;28;20054;-55
2023/05/05 01:29:55;;;;;;;9.95;3.72;;;9.80;74.50;;;;;;5089954;28;20020;-55
2023/05/05 01:32:30;;;;;;;7.55;2.72;;;9.80;73.50;;;;;;5083775;28;20027;-55
2023/05/05 01:35:19;;;;;;;5.70;2.97;;;9.80;74.70;;;;;;5069345;28;20032;-54
2023/05/05 01:37:54;;;;;;;6.30;3.30;;;9.80;74.30;;;;;;5090818;28;20028;-55
2023/05/05 01:40:26;;;;;;;6.43;3.17;;;9.80;74.60;;;;;;5089767;28;20020;-54
2023/05/05 01:42:55;;;;;;;8.43;3.28;;;9.80;74.20;;;;;;5080290;28;20107;-55
2023/05/05 01:45:25;;;;;;;9.10;3.10;;;9.80;74.50;;;;;;5109475;28;20054;-53
2023/05/05 01:47:52;;;;;;;8.63;2.95;;;9.70;74.70;;;;;;5080023;28;20035;-54
2023/05/05 01:50:19;;;;;;;4.88;2.67;;;9.70;74.00;;;;;;5109255;28;20081;-55
2023/05/05 01:52:46;;;;;;;3.97;2.25;;;9.70;74.30;;;;;;5087900;28;20387;-54
2023/05/05 01:55:13;;;;;;;12.05;3.85;;;9.70;74.50;;;;;;5108927;28;20023;-55
2023/05/05 01:57:41;;;;;;;10.90;3.25;;;9.60;75.40;;;;;;5098486;28;20032;-55
2023/05/05 02:00:08;;;;;;;8.43;2.92;;;9.60;74.50;;;;;;5089593;28;20080;-54
2023/05/05 02:02:35;;;;;;;6.13;2.67;;;9.60;74.90;;;;;;5107123;28;20076;-55
2023/05/05 02:05:03;;;;;;;9.18;3.13;;;9.60;76.00;;;;;;5087836;28;20518;-53
2023/05/05 02:07:30;;;;;;;8.95;3.58;;;9.60;75.50;;;;;;5106220;28;20041;-57
2023/05/05 02:09:56;;;;;;;10.95;2.85;;;9.60;75.70;;;;;;5089331;28;20073;-59
2023/05/05 02:12:21;;;;;;;5.90;2.63;;;9.60;75.10;;;;;;5095574;28;20103;-58
2023/05/05 02:14:48;;;;;;;6.90;3.95;;;9.50;75.20;;;;;;5108555;28;20035;-59
2023/05/05 02:17:15;;;;;;;8.00;3.13;;;9.50;75.60;;;;;;5096056;28;20050;-58
2023/05/05 02:19:44;;;;;;;8.90;2.78;;;9.50;75.40;;;;;;5089266;28;20028;-58
2023/05/05 02:22:11;;;;;;;7.05;3.20;;;9.50;74.40;;;;;;5107052;28;20034;-59
2023/05/05 02:24:36;;;;;;;7.43;3.22;;;9.50;75.70;;;;;;5089142;28;20619;-59
2023/05/05 02:27:05;;;;;;;5.72;2.92;;;9.50;74.80;;;;;;5107285;28;20108;-58
2023/05/05 02:29:46;;;;;;;9.57;3.05;;;9.40;74.70;;;;;;5088957;28;20093;-59
2023/05/05 02:32:28;;;;;;;6.75;3.35;;;9.40;75.80;;;;;;5086357;28;20039;-60
2023/05/05 02:34:55;;;;;;;6.63;2.97;;;9.40;76.50;;;;;;5067172;28;20027;-59
2023/05/05 02:37:26;;;;;;;6.22;2.90;;;9.40;76.80;;;;;;5105954;28;20107;-59
2023/05/05 02:39:57;;;;;;;5.88;2.95;;;9.30;76.00;;;;;;5068403;28;20025;-59
2023/05/05 02:42:28;;;;;;;6.22;3.28;;;9.30;77.30;;;;;;5090974;28;20023;-59
2023/05/05 02:45:00;;;;;;;8.52;3.67;;;9.20;76.60;;;;;;5072801;28;20438;-57
2023/05/05 02:47:36;;;;;;;10.30;3.10;;;9.20;78.00;;;;;;5099323;28;20028;-59
2023/05/05 02:50:03;;;;;;;7.15;3.20;;;9.20;78.60;;;;;;5112579;28;20517;-60
2023/05/05 02:52:28;;;;;;;7.18;2.42;;;9.20;79.00;;;;;;5091363;28;20032;-59
2023/05/05 02:54:54;;;;;;;9.30;3.42;;;9.10;79.10;;;;;;5111142;28;20023;-59
2023/05/05 02:57:33;;;;;;;10.02;3.42;;;9.10;79.10;;;;;;5102094;28;20027;-59
2023/05/05 03:00:06;;;;;;;15.20;3.83;;;9.10;78.70;;;;;;5072628;28;20024;-59
2023/05/05 03:02:39;;;;;;;8.93;3.10;;;9.10;77.70;;;;;;5083045;28;20040;-60
2023/05/05 03:05:09;;;;;;;6.57;2.92;;;9.10;78.20;;;;;;5092047;28;20020;-60
2023/05/05 03:07:52;;;;;;;7.90;3.65;;;9.00;78.20;;;;;;5110993;28;20077;-59
2023/05/05 03:10:23;;;;;;;6.38;3.47;;;9.00;80.00;;;;;;5071032;28;20513;-59
2023/05/05 03:12:53;;;;;;;8.00;3.15;;;9.00;79.20;;;;;;5085333;28;20098;-57
2023/05/05 03:15:23;;;;;;;5.07;2.60;;;9.00;80.10;;;;;;5072150;28;20611;-58
2023/05/05 03:17:50;;;;;;;9.30;3.78;;;9.00;80.10;;;;;;5071092;28;20028;-59
2023/05/05 03:20:16;;;;;;;10.50;3.50;;;9.00;80.80;;;;;;5111657;28;20127;-59
2023/05/05 03:22:41;;;;;;;6.90;3.83;;;8.90;80.90;;;;;;5090963;28;20024;-59
2023/05/05 03:25:07;;;;;;;10.45;3.47;;;8.90;81.10;;;;;;5107163;28;20097;-60
2023/05/05 03:27:33;;;;;;;7.68;3.30;;;8.80;82.10;;;;;;5090607;28;20032;-59
2023/05/05 03:29:58;;;;;;;7.63;2.97;;;8.80;81.40;;;;;;5111656;28;20067;-59
2023/05/05 03:32:24;;;;;;;7.43;3.20;;;8.80;82.20;;;;;;5090948;28;20488;-58
2023/05/05 03:34:50;;;;;;;7.38;3.05;;;8.80;83.30;;;;;;5090657;28;20032;-57
2023/05/05 03:37:15;;;;;;;11.23;3.95;;;8.80;82.60;;;;;;5099991;28;20036;-58
2023/05/05 03:39:41;;;;;;;7.82;3.25;;;8.80;83.70;;;;;;5111942;28;20055;-58
2023/05/05 03:42:06;;;;;;;8.07;3.45;;;8.80;83.80;;;;;;5090768;28;20024;-60
2023/05/05 03:44:32;;;;;;;11.75;3.50;;;8.70;82.50;;;;;;5111835;28;20055;-58
2023/05/05 03:46:58;;;;;;;15.32;3.72;;;8.70;84.20;;;;;;5098218;28;20032;-59
2023/05/05 03:49:23;;;;;;;5.85;2.58;;;8.70;84.20;;;;;;5112478;28;20062;-59
2023/05/05 03:51:48;;;;;;;6.32;3.10;;;8.70;83.30;;;;;;5096518;28;20039;-59
2023/05/05 03:54:15;;;;;;;7.32;3.60;;;8.70;84.50;;;;;;5111657;28;20028;-59
2023/05/05 03:56:40;;;;;;;9.45;3.38;;;8.70;84.10;;;;;;5090549;28;20032;-59
2023/05/05 03:59:07;;;;;;;9.63;3.67;;;8.70;84.00;;;;;;5092323;28;20395;-59
2023/05/05 04:01:34;;;;;;;8.43;3.42;;;8.70;84.00;;;;;;5109799;28;20039;-59
2023/05/05 04:03:59;;;;;;;8.68;3.33;;;8.70;83.80;;;;;;5112275;28;20024;-59
2023/05/05 04:06:25;;;;;;;9.32;3.00;;;8.70;83.00;;;;;;5089119;28;20187;-51
2023/05/05 04:08:50;;;;;;;9.85;3.75;;;8.70;83.30;;;;;;5111371;28;20032;-51
2023/05/05 04:11:16;;;;;;;7.63;3.22;;;8.80;83.40;;;;;;5090373;28;20031;-53
2023/05/05 04:13:41;;;;;;;11.35;3.83;;;8.80;82.70;;;;;;5111088;27;20038;-49
2023/05/05 04:16:08;;;;;;;9.93;3.65;;;8.80;82.80;;;;;;5090084;28;20040;-51
2023/05/05 04:18:33;;;;;;;7.93;3.40;;;8.90;82.60;;;;;;5110619;28;20053;-54
2023/05/05 04:20:59;;;;;;;5.95;3.17;;;9.00;81.50;;;;;;5090184;28;20035;-50
2023/05/05 04:23:25;;;;;;;6.75;3.63;;;9.30;79.60;;;;;;5111161;28;20028;-52
2023/05/05 04:25:50;;;;;;;10.10;4.00;;;9.50;76.50;;;;;;5090050;28;20048;-51
2023/05/05 04:28:16;;;;;;;7.07;3.35;;;9.70;75.20;;;;;;5107574;28;20032;-51
2023/05/05 04:30:41;;;;;;;12.77;3.67;;;9.90;72.70;;;;;;5102461;28;20028;-55
2023/05/05 04:33:07;;;;;;;7.38;3.25;;;10.10;70.70;;;;;;5091368;28;20115;-53
2023/05/05 04:35:32;;;;;;;8.32;3.17;;;10.10;69.80;;;;;;5088903;28;20028;-54
2023/05/05 04:37:58;;;;;;;9.73;3.55;;;10.20;69.90;;;;;;5111086;28;20055;-53
2023/05/05 04:40:26;;;;;;;6.72;3.72;;;10.20;69.40;;;;;;5098837;28;20338;-52
2023/05/05 04:42:52;;;;;;;11.77;4.07;;;10.20;68.90;;;;;;5089042;28;20024;-52
2023/05/05 04:45:17;;;;;;;12.70;4.57;;;10.30;67.80;;;;;;5110233;28;20031;-53
2023/05/05 04:47:43;;;;;;;10.05;4.25;;;11.00;65.00;;;;;;5089065;28;20469;-55
2023/05/05 04:50:10;;;;;;;5.85;3.13;;;11.70;60.70;;;;;;5109907;28;20035;-50
2023/05/05 04:52:35;;;;;;;11.85;4.35;;;12.60;57.40;;;;;;5099196;28;20288;-52
2023/05/05 04:55:07;;;;;;;7.95;3.60;;;13.20;51.30;;;;;;5089202;28;20285;-50
2023/05/05 04:57:33;;;;;;;5.32;2.95;;;13.90;49.40;;;;;;5108601;28;20080;-54
2023/05/05 05:00:04;;;;;;;10.85;3.60;;;14.10;47.80;;;;;;5090680;28;20032;-51
2023/05/05 05:02:29;;;;;;;9.73;3.58;;;14.50;43.00;;;;;;5108209;28;20020;-54
2023/05/05 05:04:55;;;;;;;8.32;4.18;;;14.80;38.00;;;;;;5089330;28;20035;-52
2023/05/05 05:07:22;;;;;;;7.93;3.28;;;14.90;38.10;;;;;;5108257;28;20027;-53
2023/05/05 05:09:48;;;;;;;7.97;3.45;;;15.00;35.40;;;;;;5089880;28;20032;-54
2023/05/05 05:12:13;;;;;;;8.25;3.70;;;14.70;33.50;;;;;;5094781;28;20031;-51
2023/05/05 05:14:39;;;;;;;7.90;3.70;;;14.30;33.30;;;;;;5109425;28;20168;-50
2023/05/05 05:17:05;;;;;;;8.65;3.53;;;14.30;32.40;;;;;;5089518;28;20364;-52
2023/05/05 05:19:30;;;;;;;9.27;3.90;;;14.00;33.50;;;;;;5110167;28;20139;-53
2023/05/05 05:21:56;;;;;;;11.02;3.25;;;14.30;32.60;;;;;;5090302;28;20020;-51
2023/05/05 05:24:21;;;;;;;8.25;3.83;;;14.00;31.60;;;;;;5110282;28;20028;-51
2023/05/05 05:26:47;;;;;;;7.15;3.17;;;13.70;32.90;;;;;;5088705;28;20436;-49
2023/05/05 05:29:12;;;;;;;14.18;4.10;;;13.70;32.90;;;;;;5110135;28;20095;-51
2023/05/05 05:31:38;;;;;;;8.88;3.70;;;13.40;33.20;;;;;;5090316;28;20492;-51
2023/05/05 05:34:04;;;;;;;7.10;3.20;;;13.70;33.60;;;;;;5109664;28;20031;-53
2023/05/05 05:36:30;;;;;;;9.20;3.88;;;14.90;30.00;;;;;;5095230;28;20024;-54
2023/05/05 05:38:56;;;;;;;8.55;3.10;;;15.60;27.60;;;;;;5109554;28;20015;-54
2023/05/05 05:41:27;;;;;;;6.32;3.10;;;16.10;27.00;;;;;;5094130;28;20083;-54
2023/05/05 05:43:53;;;;;;;8.90;3.58;;;16.40;24.20;;;;;;5109654;28;20540;-49
2023/05/05 05:46:18;;;;;;;7.28;3.38;;;16.80;22.30;;;;;;5093753;28;20020;-54
2023/05/05 05:48:43;;;;;;;7.63;3.13;;;16.80;21.60;;;;;;5101713;28;20038;-51
2023/05/05 05:51:09;;;;;;;9.55;3.47;;;15.90;22.80;;;;;;5091640;28;20047;-54
2023/05/05 05:53:34;;;;;;;10.32;3.53;;;16.20;22.70;;;;;;5102524;28;20371;-50
2023/05/05 05:56:00;;;;;;;7.93;3.35;;;17.00;22.60;;;;;;5088894;28;20051;-49
2023/05/05 05:58:25;;;;;;;9.80;3.35;;;17.10;19.80;;;;;;5106596;28;20400;-52
2023/05/05 06:00:51;;;;;;;7.40;3.42;;;17.50;20.30;;;;;;5109327;28;20499;-52
2023/05/05 06:03:16;;;;;;;9.30;3.70;;;18.10;17.10;;;;;;5086226;28;20028;-56
2023/05/05 06:05:44;;;;;;;6.47;3.38;;;17.60;17.80;;;;;;5091184;28;20476;-51
2023/05/05 06:08:09;;;;;;;6.72;3.53;;;17.50;17.70;;;;;;5094935;28;20107;-51
2023/05/05 06:10:35;;;;;;;6.55;3.03;;;18.40;16.10;;;;;;5108426;28;20110;-54
2023/05/05 06:13:00;;;;;;;11.23;3.38;;;18.90;16.60;;;;;;5098438;28;20035;-52
2023/05/05 06:15:26;;;;;;;10.57;3.95;;;19.60;14.10;;;;;;5089158;28;20460;-52
2023/05/05 06:17:51;;;;;;;7.13;3.00;;;19.70;13.70;;;;;;5106382;28;20028;-49
2023/05/05 06:20:17;;;;;;;11.45;3.38;;;19.80;14.00;;;;;;5089046;28;20469;-50
2023/05/05 06:22:42;;;;;;;5.35;2.67;;;20.00;11.80;;;;;;5106177;28;20055;-53
2023/05/05 06:25:08;;;;;;;6.50;2.90;;;21.10;10.30;;;;;;5093520;28;20035;-53
2023/05/05 06:27:35;;;;;;;7.10;2.85;;;22.00;11.30;;;;;;5107141;28;20043;-52
2023/05/05 06:30:00;;;;;;;8.45;3.35;;;22.80;7.70;;;;;;5108985;28;20024;-53
2023/05/05 06:32:26;;;;;;;7.45;3.25;;;21.90;6.30;;;;;;5093576;28;20047;-53
2023/05/05 06:34:51;;;;;;;8.52;3.20;;;19.90;9.70;;;;;;5108824;28;20097;-47
2023/05/05 06:37:16;;;;;;;5.45;3.15;;;19.30;10.60;;;;;;5091960;28;20031;-53
2023/05/05 06:39:42;;;;;;;6.03;3.20;;;18.90;12.00;;;;;;5108951;28;20030;-47
2023/05/05 06:42:07;;;;;;;8.55;3.45;;;19.20;11.20;;;;;;5091964;28;20035;-49
2023/05/05 06:44:35;;;;;;;7.15;3.90;;;18.30;12.70;;;;;;5108935;28;20089;-53
2023/05/05 06:47:01;;;;;;;11.65;4.32;;;17.60;14.20;;;;;;5090606;28;20019;-52
2023/05/05 06:49:26;;;;;;;7.90;3.10;;;17.90;14.50;;;;;;5106757;28;20031;-54
2023/05/05 06:51:52;;;;;;;8.15;3.40;;;18.00;14.20;;;;;;5088859;28;20036;-52
2023/05/05 06:54:17;;;;;;;6.13;3.13;;;18.10;14.20;;;;;;5094054;28;20036;-53
2023/05/05 06:56:42;;;;;;;5.57;3.03;;;18.70;13.80;;;;;;5108161;28;20426;-51
2023/05/05 06:59:08;;;;;;;7.50;3.28;;;19.70;12.60;;;;;;5097742;28;20031;-50
2023/05/05 07:01:33;;;;;;;8.00;3.80;;;20.70;9.40;;;;;;5089179;28;20105;-54
2023/05/05 07:03:59;;;;;;;6.68;3.40;;;20.30;9.80;;;;;;5105692;28;20404;-53
2023/05/05 07:06:24;;;;;;;7.50;3.83;;;19.40;11.10;;;;;;5082893;28;20077;-50
2023/05/05 07:08:50;;;;;;;7.15;3.75;;;19.60;11.40;;;;;;5103342;28;20073;-53
2023/05/05 07:11:15;;;;;;;8.10;3.45;;;20.60;9.70;;;;;;5088952;28;20024;-51
2023/05/05 07:13:41;;;;;;;6.57;3.47;;;20.70;9.40;;;;;;5108291;28;20019;-50
2023/05/05 07:16:06;;;;;;;8.00;4.05;;;20.30;10.60;;;;;;5087737;28;20028;-47
2023/05/05 07:18:32;;;;;;;8.05;3.00;;;19.60;10.50;;;;;;5107938;28;20022;-51
2023/05/05 07:20:57;;;;;;;7.07;4.28;;;18.60;12.30;;;;;;5086209;28;20063;-52
2023/05/05 07:23:23;;;;;;;8.00;4.13;;;17.90;13.60;;;;;;5108030;28;20023;-51
2023/05/05 07:25:48;;;;;;;7.40;3.17;;;17.40;14.50;;;;;;5098010;28;20051;-51
2023/05/05 07:28:14;;;;;;;6.68;3.95;;;17.50;15.00;;;;;;5086385;28;20307;-54
2023/05/05 07:30:40;;;;;;;5.47;3.15;;;17.80;14.70;;;;;;5110639;28;20070;-50
2023/05/05 07:33:05;;;;;;;7.07;3.58;;;19.00;13.70;;;;;;5089967;28;20369;-49
2023/05/05 07:35:31;;;;;;;7.95;3.70;;;19.20;12.50;;;;;;5110939;28;20140;-52
2023/05/05 07:37:56;;;;;;;9.73;4.00;;;18.50;13.10;;;;;;5089822;28;20032;-51
2023/05/05 07:40:22;;;;;;;6.53;2.83;;;18.50;13.60;;;;;;5110819;28;20035;-52
2023/05/05 07:42:47;;;;;;;7.80;4.10;;;18.80;13.90;;;;;;5090022;28;20059;-54
2023/05/05 07:45:13;;;;;;;10.00;3.67;;;19.20;12.80;;;;;;5109218;28;20528;-54
2023/05/05 07:47:39;;;;;;;6.53;3.13;;;19.10;13.00;;;;;;5109965;28;20062;-52
2023/05/05 07:50:05;;;;;;;9.45;3.22;;;19.40;13.00;;;;;;5091905;28;20118;-52
2023/05/05 07:52:31;;;;;;;8.45;4.20;;;19.50;11.90;;;;;;5093351;28;20066;-52
2023/05/05 07:54:56;;;;;;;6.88;3.30;;;19.50;12.10;;;;;;5110944;28;20051;-49
2023/05/05 07:57:22;;;;;;;10.07;3.78;;;20.50;10.60;;;;;;5089811;28;20043;-51
2023/05/05 07:59:47;;;;;;;6.97;3.83;;;20.50;10.00;;;;;;5110803;28;20054;-54
2023/05/05 08:02:13;;;;;;;9.93;4.00;;;20.00;9.90;;;;;;5089922;28;20028;-51
2023/05/05 08:04:39;;;;;;;4.90;3.30;;;19.60;10.90;;;;;;5102750;28;20073;-50
2023/05/05 08:07:05;;;;;;;7.90;3.60;;;20.60;10.90;;;;;;5089410;28;20066;-53
2023/05/05 08:09:30;;;;;;;6.72;3.90;;;20.60;9.30;;;;;;5108924;28;20047;-50
2023/05/05 08:11:56;;;;;;;6.55;3.90;;;20.00;10.00;;;;;;5111535;28;20027;-58
2023/05/05 08:14:21;;;;;;;6.65;4.20;;;19.70;10.70;;;;;;5095767;28;20036;-52
2023/05/05 08:16:47;;;;;;;7.85;4.30;;;19.50;11.80;;;;;;5093518;28;20138;-51
2023/05/05 08:19:12;;;;;;;6.03;3.72;;;19.50;11.10;;;;;;5109156;28;20469;-47
2023/05/05 08:21:40;;;;;;;8.18;4.57;;;19.70;11.70;;;;;;5111143;28;20022;-52
2023/05/05 08:24:06;;;;;;;7.25;4.60;;;19.90;11.60;;;;;;5092989;28;20096;-49
2023/05/05 08:26:31;;;;;;;6.78;4.20;;;19.70;11.40;;;;;;5110936;28;20406;-50
2023/05/05 08:28:59;;;;;;;13.05;4.50;;;19.80;11.90;;;;;;5092026;28;20411;-52
2023/05/05 08:31:35;;;;;;;9.95;3.97;;;19.10;12.50;;;;;;5109388;28;20093;-54
2023/05/05 08:34:01;;;;;;;5.88;4.05;;;18.50;13.60;;;;;;5070510;28;20024;-47
2023/05/05 08:36:27;;;;;;;7.13;3.40;;;18.60;14.60;;;;;;5093821;28;20085;-54
2023/05/05 08:38:53;;;;;;;5.82;3.45;;;19.00;14.40;;;;;;5110173;28;20019;-50
2023/05/05 08:41:19;;;;;;;5.00;3.33;;;19.30;14.30;;;;;;5088823;28;20549;-52
2023/05/05 08:43:46;;;;;;;8.75;4.60;;;19.60;13.80;;;;;;5110101;28;20122;-50
2023/05/05 08:46:12;;;;;;;7.25;3.78;;;19.10;12.70;;;;;;5088862;28;20274;-51
2023/05/05 08:48:42;;;;;;;7.00;3.63;;;18.80;13.70;;;;;;5108809;28;20122;-49
2023/05/05 08:51:15;;;;;;;8.65;3.80;;;18.40;14.70;;;;;;5110824;28;20106;-49
2023/05/05 08:53:59;;;;;;;8.00;4.05;;;18.50;14.60;;;;;;5070196;28;20112;-51
2023/05/05 08:56:30;;;;;;;7.47;3.53;;;18.80;14.00;;;;;;5070062;28;20050;-47
2023/05/05 08:58:56;;;;;;;6.47;3.58;;;18.90;13.20;;;;;;5071638;28;20028;-49
2023/05/05 09:01:22;;;;;;;7.60;3.30;;;18.70;13.80;;;;;;5108764;28;20024;-51
2023/05/05 09:03:48;;;;;;;8.05;4.13;;;19.10;13.90;;;;;;5108448;28;20395;-53
2023/05/05 09:06:13;;;;;;;5.32;3.85;;;18.80;13.70;;;;;;5088988;28;20032;-53
2023/05/05 09:08:41;;;;;;;9.90;3.78;;;18.40;13.30;;;;;;5107208;28;20032;-49
2023/05/05 09:11:06;;;;;;;9.57;4.00;;;18.20;14.00;;;;;;5110095;28;20035;-48
2023/05/05 09:13:32;;;;;;;10.93;4.82;;;18.40;14.20;;;;;;5089374;28;20028;-53
2023/05/05 09:15:58;;;;;;;7.57;3.50;;;18.40;14.40;;;;;;5109720;28;20062;-53
2023/05/05 09:18:24;;;;;;;8.82;3.53;;;18.80;13.70;;;;;;5088093;28;20035;-50
2023/05/05 09:20:50;;;;;;;6.63;3.38;;;18.70;13.60;;;;;;5109839;28;20067;-46
2023/05/05 09:23:18;;;;;;;5.95;3.75;;;18.70;14.00;;;;;;5089888;28;20154;-46
2023/05/05 09:25:45;;;;;;;8.30;3.67;;;18.60;14.10;;;;;;5096791;28;20139;-51
2023/05/05 09:28:16;;;;;;;9.80;3.78;;;18.80;13.90;;;;;;5088284;28;20043;-50
2023/05/05 09:30:44;;;;;;;8.60;4.28;;;18.90;13.90;;;;;;5086518;28;20044;-49
2023/05/05 09:33:10;;;;;;;6.68;3.78;;;18.80;13.40;;;;;;5108943;28;20024;-52
2023/05/05 09:35:53;;;;;;;8.52;4.10;;;19.00;13.30;;;;;;5088104;28;20035;-48
2023/05/05 09:38:20;;;;;;;5.78;3.33;;;18.90;13.50;;;;;;5109084;28;20023;-52
2023/05/05 09:40:46;;;;;;;7.45;3.60;;;19.10;13.70;;;;;;5107421;28;20027;-52
2023/05/05 09:43:12;;;;;;;6.65;3.20;;;19.10;13.90;;;;;;5089056;28;20059;-50
2023/05/05 09:45:38;;;;;;;6.88;3.63;;;19.40;13.70;;;;;;5087702;28;20062;-51
2023/05/05 09:48:05;;;;;;;8.32;3.72;;;19.10;12.80;;;;;;5108204;28;20092;-52
2023/05/05 09:50:43;;;;;;;8.20;3.70;;;19.10;13.00;;;;;;5086060;28;20032;-49
2023/05/05 09:53:09;;;;;;;8.70;3.67;;;19.20;12.30;;;;;;5068118;28;20128;-52
2023/05/05 09:55:35;;;;;;;8.15;3.80;;;19.00;12.70;;;;;;5087299;28;20102;-52
2023/05/05 09:58:27;;;;;;;8.73;3.28;;;19.00;13.10;;;;;;5108249;28;20031;-52
2023/05/05 10:00:53;;;;;;;5.40;3.35;;;19.10;13.90;;;;;;5066985;28;20487;-47
2023/05/05 10:03:19;;;;;;;10.02;3.78;;;19.00;13.20;;;;;;5107667;28;20081;-53
2023/05/05 10:05:47;;;;;;;6.70;3.00;;;18.60;13.50;;;;;;5091632;28;20047;-48
2023/05/05 10:08:13;;;;;;;9.70;3.58;;;18.70;13.90;;;;;;5107039;28;20082;-50
2023/05/05 10:11:05;;;;;;;8.20;3.60;;;18.80;14.90;;;;;;5087355;28;20422;-51
2023/05/05 10:13:35;;;;;;;9.82;3.58;;;18.60;14.20;;;;;;5066170;28;20036;-50
2023/05/05 10:16:02;;;;;;;8.23;3.50;;;18.50;14.50;;;;;;5092445;28;20058;-50
2023/05/05 10:18:30;;;;;;;9.15;3.17;;;18.40;14.50;;;;;;5108139;28;20032;-50
2023/05/05 10:21:01;;;;;;;7.05;3.47;;;18.50;14.20;;;;;;5091104;28;20557;-54
2023/05/05 10:23:44;;;;;;;7.88;3.85;;;18.30;14.50;;;;;;5079166;28;20392;-53
2023/05/05 10:26:12;;;;;;;5.68;2.90;;;18.20;15.20;;;;;;5077925;28;20039;-52
2023/05/05 10:28:55;;;;;;;6.32;3.42;;;18.40;15.30;;;;;;5079760;28;20032;-51
2023/05/05 10:31:45;;;;;;;7.05;3.03;;;18.40;15.00;;;;;;5085723;28;20030;-55
2023/05/05 10:34:21;;;;;;;10.00;3.30;;;18.50;14.90;;;;;;5070660;28;20043;-53
2023/05/05 10:36:48;;;;;;;7.53;3.35;;;18.30;14.20;;;;;;5066290;28;20032;-54
2023/05/05 10:39:16;;;;;;;6.18;3.22;;;18.30;14.60;;;;;;5094779;28;20488;-52
2023/05/05 10:41:42;;;;;;;7.15;3.75;;;18.40;15.00;;;;;;5079683;28;20268;-53
2023/05/05 10:44:09;;;;;;;6.07;3.28;;;18.10;14.70;;;;;;5098397;28;20764;-53
2023/05/05 10:46:35;;;;;;;6.07;3.63;;;18.40;14.80;;;;;;5086780;28;20058;-51
2023/05/05 10:49:21;;;;;;;6.80;3.63;;;18.60;14.40;;;;;;5100478;28;20048;-52
2023/05/05 10:52:07;;;;;;;6.82;3.67;;;18.70;14.30;;;;;;5079348;28;20070;-53
2023/05/05 10:54:56;;;;;;;5.45;3.03;;;18.60;14.70;;;;;;5089318;28;20021;-51
2023/05/05 10:57:27;;;;;;;5.53;3.10;;;18.50;14.40;;;;;;5083322;28;20032;-52
2023/05/05 10:59:52;;;;;;;5.90;2.88;;;18.70;14.90;;;;;;5075872;28;20048;-50
2023/05/05 11:02:21;;;;;;;15.65;4.15;;;18.80;15.50;;;;;;5095279;28;20428;-54
2023/05/05 11:05:16;;;;;;;3.53;2.75;;;18.70;14.00;;;;;;5088503;28;20047;-51
2023/05/05 11:07:48;;;;;;;4.20;3.17;;;19.10;14.30;;;;;;5093688;28;20054;-52
2023/05/05 11:10:15;;;;;;;5.97;3.20;;;19.20;12.80;;;;;;5075436;28;20036;-52
2023/05/05 11:13:01;;;;;;;8.85;3.20;;;19.30;13.40;;;;;;5095158;28;20450;-53
2023/05/05 11:15:26;;;;;;;7.53;3.57;;;19.20;13.40;;;;;;5074223;28;20041;-54
2023/05/05 11:17:53;;;;;;;9.70;3.00;;;19.30;14.30;;;;;;5082318;28;20836;-51
2023/05/05 11:20:34;;;;;;;6.25;3.05;;;19.20;13.60;;;;;;5078855;28;20188;-52
2023/05/05 11:23:02;;;;;;;8.02;3.83;;;19.10;14.40;;;;;;5087108;28;20161;-51
2023/05/05 11:25:39;;;;;;;5.85;3.15;;;19.00;14.40;;;;;;5084864;28;20344;-51
2023/05/05 11:28:12;;;;;;;14.13;3.83;;;18.80;14.00;;;;;;5079498;28;20423;-51
2023/05/05 11:30:53;;;;;;;5.38;3.45;;;18.70;15.10;;;;;;5078791;28;20399;-50
2023/05/05 11:33:27;;;;;;;8.50;3.70;;;18.70;14.60;;;;;;5104383;28;20036;-54
2023/05/05 11:36:01;;;;;;;9.25;3.28;;;18.60;14.30;;;;;;5084964;28;20090;-54
2023/05/05 11:38:54;;;;;;;8.95;3.10;;;18.40;15.60;;;;;;5077611;28;20611;-52
2023/05/05 11:41:48;;;;;;;11.82;3.53;;;18.40;14.90;;;;;;5082288;28;20031;-52
2023/05/05 11:44:18;;;;;;;12.10;3.33;;;18.40;14.80;;;;;;5077605;28;20522;-52
2023/05/05 11:46:49;;;;;;;4.88;2.97;;;18.50;15.20;;;;;;5084308;28;20034;-54
2023/05/05 11:49:27;;;;;;;10.27;3.20;;;18.60;15.20;;;;;;5099600;28;20016;-53
2023/05/05 11:51:57;;;;;;;4.65;2.28;;;18.60;15.90;;;;;;5076232;28;20114;-52
2023/05/05 11:54:22;;;;;;;9.25;3.25;;;18.70;15.70;;;;;;5078055;28;20613;-50
2023/05/05 11:56:54;;;;;;;6.15;2.92;;;18.70;15.90;;;;;;5071354;28;20408;-54
2023/05/05 11:59:19;;;;;;;10.77;3.05;;;18.80;15.10;;;;;;5095103;28;20028;-54
2023/05/05 12:01:45;;;;;;;4.25;2.88;;;18.80;15.20;;;;;;5086788;28;20103;-53
2023/05/05 12:04:12;;;;;;;4.40;2.72;;;18.80;15.30;;;;;;5099214;28;20028;-52
2023/05/05 12:06:38;;;;;;;7.30;2.80;;;18.90;15.30;;;;;;5087904;28;20020;-54
2023/05/05 12:09:05;;;;;;;6.10;3.47;;;19.10;15.20;;;;;;5089590;28;20327;-55
2023/05/05 12:11:31;;;;;;;6.72;2.72;;;19.20;14.90;;;;;;5088996;28;20059;-53
2023/05/05 12:14:10;;;;;;;11.18;2.75;;;19.00;15.30;;;;;;5088005;28;20449;-54
2023/05/05 12:16:36;;;;;;;5.65;2.70;;;18.90;15.30;;;;;;5101562;28;20028;-58
2023/05/05 12:19:06;;;;;;;5.72;2.63;;;19.00;15.70;;;;;;5088089;28;20024;-59
2023/05/05 12:21:32;;;;;;;3.90;2.50;;;19.00;15.00;;;;;;5109828;28;20077;-58
2023/05/05 12:23:58;;;;;;;5.38;2.80;;;19.00;15.30;;;;;;5088335;28;20082;-58
2023/05/05 12:26:26;;;;;;;7.13;3.17;;;19.10;15.20;;;;;;5109352;28;20051;-58
2023/05/05 12:28:52;;;;;;;7.10;3.05;;;19.00;14.70;;;;;;5088074;28;20024;-58
2023/05/05 12:31:18;;;;;;;6.40;3.17;;;19.00;15.20;;;;;;5109366;28;20023;-56
2023/05/05 12:33:45;;;;;;;5.70;2.92;;;18.90;15.20;;;;;;5088061;28;20437;-57
2023/05/05 12:36:11;;;;;;;8.27;2.53;;;19.00;15.30;;;;;;5109330;28;20035;-57
2023/05/05 12:38:36;;;;;;;3.50;2.50;;;19.00;15.40;;;;;;5088238;28;20024;-60
2023/05/05 12:41:02;;;;;;;3.47;2.83;;;19.20;15.10;;;;;;5109452;28;20031;-60
2023/05/05 12:43:32;;;;;;;12.23;3.28;;;19.30;15.30;;;;;;5086653;28;20032;-57
2023/05/05 12:46:05;;;;;;;5.47;2.53;;;19.10;15.10;;;;;;5109135;28;20031;-58
2023/05/05 12:48:31;;;;;;;7.60;2.92;;;19.10;15.90;;;;;;5088029;28;20528;-57
2023/05/05 12:51:15;;;;;;;7.97;2.90;;;19.20;15.80;;;;;;5107690;28;20027;-60
2023/05/05 12:53:41;;;;;;;4.85;2.63;;;19.20;15.50;;;;;;5087549;28;20077;-58
2023/05/05 12:56:29;;;;;;;4.40;2.50;;;19.30;15.30;;;;;;5109036;28;20134;-59